sensor_id;sensor_type;location;lat;lon;timestamp;temperature;humidity
21807;DHT22;11065;50.786;7.840;2022-07-05T00:01:31;18.00;40.40
21807;DHT22;11065;50.786;7.840;2022-07-05T00:03:58;17.90;40.50
21807;DHT22;11065;50.786;7.840;2022-07-05T00:06:25;17.80;40.60
21807;DHT22;11065;50.786;7.840;2022-07-05T00:08:52;17.80;40.70
21807;DHT22;11065;50.786;7.840;2022-07-05T00:11:19;17.70;40.80
21807;DHT22;11065;50.786;7.840;2022-07-05T00:13:45;17.70;40.80
21807;DHT22;11065;50.786;7.840;2022-07-05T00:16:12;17.70;41.00
21807;DHT22;11065;50.786;7.840;2022-07-05T00:18:39;17.60;41.00
21807;DHT22;11065;50.786;7.840;2022-07-05T00:21:06;17.70;41.20
21807;DHT22;11065;50.786;7.840;2022-07-05T00:23:33;17.60;41.20
21807;DHT22;11065;50.786;7.840;2022-07-05T00:26:00;17.50;41.20
21807;DHT22;11065;50.786;7.840;2022-07-05T00:28:27;17.50;41.40
21807;DHT22;11065;50.786;7.840;2022-07-05T00:30:53;17.40;41.40
21807;DHT22;11065;50.786;7.840;2022-07-05T00:33:21;17.40;41.50
21807;DHT22;11065;50.786;7.840;2022-07-05T00:35:47;17.40;41.50
21807;DHT22;11065;50.786;7.840;2022-07-05T00:38:14;17.40;41.60
21807;DHT22;11065;50.786;7.840;2022-07-05T00:40:42;17.30;41.70
21807;DHT22;11065;50.786;7.840;2022-07-05T00:43:10;17.30;41.80
21807;DHT22;11065;50.786;7.840;2022-07-05T00:45:36;17.20;41.70
21807;DHT22;11065;50.786;7.840;2022-07-05T00:48:03;17.30;41.90
21807;DHT22;11065;50.786;7.840;2022-07-05T00:50:30;17.10;41.90
21807;DHT22;11065;50.786;7.840;2022-07-05T00:52:59;17.10;42.00
21807;DHT22;11065;50.786;7.840;2022-07-05T00:55:26;17.20;42.10
21807;DHT22;11065;50.786;7.840;2022-07-05T00:57:54;17.00;42.10
21807;DHT22;11065;50.786;7.840;2022-07-05T01:00:21;17.00;42.20
21807;DHT22;11065;50.786;7.840;2022-07-05T01:02:48;17.00;42.30
21807;DHT22;11065;50.786;7.840;2022-07-05T01:05:15;16.90;42.40
21807;DHT22;11065;50.786;7.840;2022-07-05T01:07:43;16.90;42.50
21807;DHT22;11065;50.786;7.840;2022-07-05T01:10:10;16.90;42.60
21807;DHT22;11065;50.786;7.840;2022-07-05T01:12:38;16.90;42.70
21807;DHT22;11065;50.786;7.840;2022-07-05T01:15:07;16.80;42.70
21807;DHT22;11065;50.786;7.840;2022-07-05T01:17:35;16.70;42.80
21807;DHT22;11065;50.786;7.840;2022-07-05T01:20:05;16.80;42.90
21807;DHT22;11065;50.786;7.840;2022-07-05T01:22:52;16.70;42.90
21807;DHT22;11065;50.786;7.840;2022-07-05T01:25:22;16.70;43.60
21807;DHT22;11065;50.786;7.840;2022-07-05T01:27:49;16.60;43.00
21807;DHT22;11065;50.786;7.840;2022-07-05T01:30:16;16.60;43.00
21807;DHT22;11065;50.786;7.840;2022-07-05T01:32:43;16.60;43.10
21807;DHT22;11065;50.786;7.840;2022-07-05T01:35:11;16.50;43.10
21807;DHT22;11065;50.786;7.840;2022-07-05T01:37:39;16.50;43.20
21807;DHT22;11065;50.786;7.840;2022-07-05T01:40:06;16.50;43.30
21807;DHT22;11065;50.786;7.840;2022-07-05T01:42:33;16.40;43.30
21807;DHT22;11065;50.786;7.840;2022-07-05T01:45:00;16.40;43.40
21807;DHT22;11065;50.786;7.840;2022-07-05T01:47:27;16.30;43.40
21807;DHT22;11065;50.786;7.840;2022-07-05T01:49:58;16.30;43.50
21807;DHT22;11065;50.786;7.840;2022-07-05T01:52:27;16.30;43.80
21807;DHT22;11065;50.786;7.840;2022-07-05T01:54:54;16.20;43.60
21807;DHT22;11065;50.786;7.840;2022-07-05T01:57:21;16.20;43.60
21807;DHT22;11065;50.786;7.840;2022-07-05T01:59:48;16.20;43.70
21807;DHT22;11065;50.786;7.840;2022-07-05T02:02:15;16.20;43.80
21807;DHT22;11065;50.786;7.840;2022-07-05T02:04:46;16.10;43.90
21807;DHT22;11065;50.786;7.840;2022-07-05T02:07:14;16.10;43.90
21807;DHT22;11065;50.786;7.840;2022-07-05T02:09:42;16.10;44.00
21807;DHT22;11065;50.786;7.840;2022-07-05T02:12:09;16.00;44.00
21807;DHT22;11065;50.786;7.840;2022-07-05T02:14:36;16.10;44.10
21807;DHT22;11065;50.786;7.840;2022-07-05T02:17:07;16.00;44.10
21807;DHT22;11065;50.786;7.840;2022-07-05T02:19:37;16.00;44.20
21807;DHT22;11065;50.786;7.840;2022-07-05T02:22:06;16.00;44.30
21807;DHT22;11065;50.786;7.840;2022-07-05T02:24:34;15.90;44.30
21807;DHT22;11065;50.786;7.840;2022-07-05T02:27:11;15.80;44.30
21807;DHT22;11065;50.786;7.840;2022-07-05T02:29:39;15.80;44.30
21807;DHT22;11065;50.786;7.840;2022-07-05T02:32:06;15.80;44.50
21807;DHT22;11065;50.786;7.840;2022-07-05T02:34:33;15.70;44.50
21807;DHT22;11065;50.786;7.840;2022-07-05T02:37:00;15.70;44.50
21807;DHT22;11065;50.786;7.840;2022-07-05T02:39:27;15.70;44.60
21807;DHT22;11065;50.786;7.840;2022-07-05T02:41:57;15.80;44.70
21807;DHT22;11065;50.786;7.840;2022-07-05T02:44:24;15.60;44.70
21807;DHT22;11065;50.786;7.840;2022-07-05T02:46:52;15.60;44.70
21807;DHT22;11065;50.786;7.840;2022-07-05T02:49:19;15.70;44.90
21807;DHT22;11065;50.786;7.840;2022-07-05T02:51:47;15.60;44.90
21807;DHT22;11065;50.786;7.840;2022-07-05T02:54:13;15.50;45.10
21807;DHT22;11065;50.786;7.840;2022-07-05T02:56:41;15.50;45.30
21807;DHT22;11065;50.786;7.840;2022-07-05T02:59:12;15.60;45.40
21807;DHT22;11065;50.786;7.840;2022-07-05T03:01:39;15.40;45.30
21807;DHT22;11065;50.786;7.840;2022-07-05T03:04:10;15.40;45.30
21807;DHT22;11065;50.786;7.840;2022-07-05T03:06:41;15.30;45.30
21807;DHT22;11065;50.786;7.840;2022-07-05T03:09:09;15.30;45.30
21807;DHT22;11065;50.786;7.840;2022-07-05T03:11:36;15.30;45.30
21807;DHT22;11065;50.786;7.840;2022-07-05T03:14:05;15.30;45.30
21807;DHT22;11065;50.786;7.840;2022-07-05T03:16:33;15.30;45.40
21807;DHT22;11065;50.786;7.840;2022-07-05T03:19:00;15.20;45.40
21807;DHT22;11065;50.786;7.840;2022-07-05T03:21:27;15.20;45.40
21807;DHT22;11065;50.786;7.840;2022-07-05T03:23:55;15.20;45.50
21807;DHT22;11065;50.786;7.840;2022-07-05T03:26:22;15.20;45.60
21807;DHT22;11065;50.786;7.840;2022-07-05T03:28:48;15.20;45.60
21807;DHT22;11065;50.786;7.840;2022-07-05T03:31:16;15.10;45.60
21807;DHT22;11065;50.786;7.840;2022-07-05T03:33:44;15.00;45.60
21807;DHT22;11065;50.786;7.840;2022-07-05T03:36:12;15.00;45.70
21807;DHT22;11065;50.786;7.840;2022-07-05T03:38:41;15.00;45.80
21807;DHT22;11065;50.786;7.840;2022-07-05T03:41:08;15.00;45.80
21807;DHT22;11065;50.786;7.840;2022-07-05T03:43:35;15.00;45.80
21807;DHT22;11065;50.786;7.840;2022-07-05T03:46:02;14.90;45.90
21807;DHT22;11065;50.786;7.840;2022-07-05T03:48:31;15.00;46.00
21807;DHT22;11065;50.786;7.840;2022-07-05T03:51:09;14.90;46.00
21807;DHT22;11065;50.786;7.840;2022-07-05T03:53:37;15.00;46.00
21807;DHT22;11065;50.786;7.840;2022-07-05T03:56:04;14.90;46.10
21807;DHT22;11065;50.786;7.840;2022-07-05T03:58:31;14.90;46.10
21807;DHT22;11065;50.786;7.840;2022-07-05T04:01:02;14.80;46.20
21807;DHT22;11065;50.786;7.840;2022-07-05T04:03:29;14.80;46.20
21807;DHT22;11065;50.786;7.840;2022-07-05T04:05:58;14.80;46.30
21807;DHT22;11065;50.786;7.840;2022-07-05T04:08:26;14.80;46.40
21807;DHT22;11065;50.786;7.840;2022-07-05T04:10:53;14.80;46.50
21807;DHT22;11065;50.786;7.840;2022-07-05T04:13:21;14.80;46.50
21807;DHT22;11065;50.786;7.840;2022-07-05T04:15:52;14.80;46.50
21807;DHT22;11065;50.786;7.840;2022-07-05T04:18:20;14.80;46.60
21807;DHT22;11065;50.786;7.840;2022-07-05T04:20:47;14.80;46.70
21807;DHT22;11065;50.786;7.840;2022-07-05T04:23:14;14.80;46.80
21807;DHT22;11065;50.786;7.840;2022-07-05T04:25:41;14.80;46.80
21807;DHT22;11065;50.786;7.840;2022-07-05T04:28:31;14.90;46.90
21807;DHT22;11065;50.786;7.840;2022-07-05T04:31:00;14.80;46.90
21807;DHT22;11065;50.786;7.840;2022-07-05T04:33:30;14.80;47.10
21807;DHT22;11065;50.786;7.840;2022-07-05T04:35:58;14.80;47.20
21807;DHT22;11065;50.786;7.840;2022-07-05T04:38:25;14.90;47.30
21807;DHT22;11065;50.786;7.840;2022-07-05T04:40:54;14.90;47.40
21807;DHT22;11065;50.786;7.840;2022-07-05T04:43:20;14.80;47.40
21807;DHT22;11065;50.786;7.840;2022-07-05T04:45:47;14.90;47.50
21807;DHT22;11065;50.786;7.840;2022-07-05T04:48:22;14.90;47.60
21807;DHT22;11065;50.786;7.840;2022-07-05T04:50:49;14.90;47.60
21807;DHT22;11065;50.786;7.840;2022-07-05T04:53:16;14.90;47.60
21807;DHT22;11065;50.786;7.840;2022-07-05T04:55:43;14.90;47.70
21807;DHT22;11065;50.786;7.840;2022-07-05T04:58:09;15.00;47.80
21807;DHT22;11065;50.786;7.840;2022-07-05T05:00:38;15.10;47.90
21807;DHT22;11065;50.786;7.840;2022-07-05T05:03:05;15.10;48.30
21807;DHT22;11065;50.786;7.840;2022-07-05T05:05:32;15.10;47.90
21807;DHT22;11065;50.786;7.840;2022-07-05T05:07:58;15.20;48.00
21807;DHT22;11065;50.786;7.840;2022-07-05T05:10:25;15.20;48.10
21807;DHT22;11065;50.786;7.840;2022-07-05T05:12:52;15.20;48.00
21807;DHT22;11065;50.786;7.840;2022-07-05T05:15:19;15.30;48.10
21807;DHT22;11065;50.786;7.840;2022-07-05T05:17:46;15.30;48.10
21807;DHT22;11065;50.786;7.840;2022-07-05T05:20:17;15.50;48.20
21807;DHT22;11065;50.786;7.840;2022-07-05T05:22:45;15.30;48.10
21807;DHT22;11065;50.786;7.840;2022-07-05T05:25:13;15.50;48.20
21807;DHT22;11065;50.786;7.840;2022-07-05T05:27:45;15.40;48.30
21807;DHT22;11065;50.786;7.840;2022-07-05T05:30:19;15.50;48.30
21807;DHT22;11065;50.786;7.840;2022-07-05T05:32:46;15.50;48.30
21807;DHT22;11065;50.786;7.840;2022-07-05T05:35:13;15.60;48.30
21807;DHT22;11065;50.786;7.840;2022-07-05T05:37:47;15.60;48.30
21807;DHT22;11065;50.786;7.840;2022-07-05T05:40:14;15.60;48.60
21807;DHT22;11065;50.786;7.840;2022-07-05T05:42:42;15.70;48.50
21807;DHT22;11065;50.786;7.840;2022-07-05T05:45:09;15.70;48.60
21807;DHT22;11065;50.786;7.840;2022-07-05T05:47:51;15.80;48.60
21807;DHT22;11065;50.786;7.840;2022-07-05T05:50:27;15.90;49.10
21807;DHT22;11065;50.786;7.840;2022-07-05T05:52:54;15.90;48.70
21807;DHT22;11065;50.786;7.840;2022-07-05T05:55:22;16.00;48.70
21807;DHT22;11065;50.786;7.840;2022-07-05T05:57:49;16.00;48.70
21807;DHT22;11065;50.786;7.840;2022-07-05T06:00:17;16.10;48.70
21807;DHT22;11065;50.786;7.840;2022-07-05T06:02:45;16.10;49.20
21807;DHT22;11065;50.786;7.840;2022-07-05T06:05:13;16.10;48.90
21807;DHT22;11065;50.786;7.840;2022-07-05T06:07:51;16.10;49.00
21807;DHT22;11065;50.786;7.840;2022-07-05T06:10:28;16.20;49.40
21807;DHT22;11065;50.786;7.840;2022-07-05T06:13:01;16.30;49.10
21807;DHT22;11065;50.786;7.840;2022-07-05T06:15:30;16.30;49.00
21807;DHT22;11065;50.786;7.840;2022-07-05T06:17:57;16.40;48.80
21807;DHT22;11065;50.786;7.840;2022-07-05T06:20:26;16.40;49.00
21807;DHT22;11065;50.786;7.840;2022-07-05T06:22:54;16.50;49.30
21807;DHT22;11065;50.786;7.840;2022-07-05T06:25:21;16.50;49.20
21807;DHT22;11065;50.786;7.840;2022-07-05T06:27:52;16.60;49.10
21807;DHT22;11065;50.786;7.840;2022-07-05T06:30:21;16.60;49.10
21807;DHT22;11065;50.786;7.840;2022-07-05T06:32:49;16.60;49.00
21807;DHT22;11065;50.786;7.840;2022-07-05T06:35:16;16.80;49.10
21807;DHT22;11065;50.786;7.840;2022-07-05T06:37:49;16.90;49.10
21807;DHT22;11065;50.786;7.840;2022-07-05T06:40:21;16.80;49.10
21807;DHT22;11065;50.786;7.840;2022-07-05T06:42:49;17.00;49.10
21807;DHT22;11065;50.786;7.840;2022-07-05T06:45:18;16.90;49.00
21807;DHT22;11065;50.786;7.840;2022-07-05T06:47:45;17.00;49.10
21807;DHT22;11065;50.786;7.840;2022-07-05T06:50:12;17.10;49.10
21807;DHT22;11065;50.786;7.840;2022-07-05T06:52:39;17.20;49.00
21807;DHT22;11065;50.786;7.840;2022-07-05T06:55:06;17.20;48.90
21807;DHT22;11065;50.786;7.840;2022-07-05T06:57:33;17.30;49.00
21807;DHT22;11065;50.786;7.840;2022-07-05T07:00:00;17.50;49.00
21807;DHT22;11065;50.786;7.840;2022-07-05T07:02:28;17.50;49.00
21807;DHT22;11065;50.786;7.840;2022-07-05T07:04:55;17.50;48.90
21807;DHT22;11065;50.786;7.840;2022-07-05T07:07:40;17.70;49.00
21807;DHT22;11065;50.786;7.840;2022-07-05T07:10:25;17.70;49.10
21807;DHT22;11065;50.786;7.840;2022-07-05T07:12:56;17.80;48.90
21807;DHT22;11065;50.786;7.840;2022-07-05T07:15:23;18.00;48.80
21807;DHT22;11065;50.786;7.840;2022-07-05T07:17:50;18.10;48.80
21807;DHT22;11065;50.786;7.840;2022-07-05T07:20:17;18.20;48.80
21807;DHT22;11065;50.786;7.840;2022-07-05T07:22:44;18.30;48.70
21807;DHT22;11065;50.786;7.840;2022-07-05T07:25:11;18.50;48.60
21807;DHT22;11065;50.786;7.840;2022-07-05T07:27:45;18.50;48.50
21807;DHT22;11065;50.786;7.840;2022-07-05T07:30:14;18.70;48.50
21807;DHT22;11065;50.786;7.840;2022-07-05T07:32:42;18.80;48.40
21807;DHT22;11065;50.786;7.840;2022-07-05T07:35:09;19.00;48.50
21807;DHT22;11065;50.786;7.840;2022-07-05T07:37:37;19.00;48.60
21807;DHT22;11065;50.786;7.840;2022-07-05T07:40:04;19.20;48.60
21807;DHT22;11065;50.786;7.840;2022-07-05T07:42:32;19.30;48.80
21807;DHT22;11065;50.786;7.840;2022-07-05T07:44:59;19.40;49.30
21807;DHT22;11065;50.786;7.840;2022-07-05T07:47:31;19.70;48.80
21807;DHT22;11065;50.786;7.840;2022-07-05T07:49:58;19.90;48.90
21807;DHT22;11065;50.786;7.840;2022-07-05T07:52:26;20.00;48.80
21807;DHT22;11065;50.786;7.840;2022-07-05T07:54:52;20.10;48.50
21807;DHT22;11065;50.786;7.840;2022-07-05T07:57:19;20.30;48.40
21807;DHT22;11065;50.786;7.840;2022-07-05T07:59:46;20.50;48.30
21807;DHT22;11065;50.786;7.840;2022-07-05T08:02:13;20.60;48.10
21807;DHT22;11065;50.786;7.840;2022-07-05T08:04:40;20.70;47.90
21807;DHT22;11065;50.786;7.840;2022-07-05T08:07:08;20.90;47.70
21807;DHT22;11065;50.786;7.840;2022-07-05T08:09:35;21.00;47.60
21807;DHT22;11065;50.786;7.840;2022-07-05T08:12:02;21.20;47.40
21807;DHT22;11065;50.786;7.840;2022-07-05T08:14:28;21.30;47.20
21807;DHT22;11065;50.786;7.840;2022-07-05T08:16:55;21.40;47.00
21807;DHT22;11065;50.786;7.840;2022-07-05T08:19:22;21.60;46.90
21807;DHT22;11065;50.786;7.840;2022-07-05T08:22:08;21.70;46.80
21807;DHT22;11065;50.786;7.840;2022-07-05T08:24:37;21.80;46.60
21807;DHT22;11065;50.786;7.840;2022-07-05T08:27:06;21.90;46.40
21807;DHT22;11065;50.786;7.840;2022-07-05T08:29:33;21.90;46.40
21807;DHT22;11065;50.786;7.840;2022-07-05T08:32:00;22.10;46.40
21807;DHT22;11065;50.786;7.840;2022-07-05T08:34:27;22.20;46.30
21807;DHT22;11065;50.786;7.840;2022-07-05T08:36:54;22.20;46.30
21807;DHT22;11065;50.786;7.840;2022-07-05T08:39:21;22.30;46.10
21807;DHT22;11065;50.786;7.840;2022-07-05T08:41:50;22.40;46.00
21807;DHT22;11065;50.786;7.840;2022-07-05T08:44:22;22.40;45.90
21807;DHT22;11065;50.786;7.840;2022-07-05T08:46:50;22.50;45.80
21807;DHT22;11065;50.786;7.840;2022-07-05T08:49:24;22.60;45.80
21807;DHT22;11065;50.786;7.840;2022-07-05T08:51:52;22.70;45.70
21807;DHT22;11065;50.786;7.840;2022-07-05T08:54:21;22.80;45.70
21807;DHT22;11065;50.786;7.840;2022-07-05T08:56:49;22.90;45.70
21807;DHT22;11065;50.786;7.840;2022-07-05T08:59:36;23.00;45.60
21807;DHT22;11065;50.786;7.840;2022-07-05T09:02:03;23.20;45.50
21807;DHT22;11065;50.786;7.840;2022-07-05T09:04:33;23.30;45.20
21807;DHT22;11065;50.786;7.840;2022-07-05T09:07:04;23.40;45.20
21807;DHT22;11065;50.786;7.840;2022-07-05T09:09:38;23.50;45.10
21807;DHT22;11065;50.786;7.840;2022-07-05T09:12:11;23.70;45.00
21807;DHT22;11065;50.786;7.840;2022-07-05T09:14:48;23.80;45.10
21807;DHT22;11065;50.786;7.840;2022-07-05T09:17:15;23.90;45.00
21807;DHT22;11065;50.786;7.840;2022-07-05T09:19:42;24.20;44.90
21807;DHT22;11065;50.786;7.840;2022-07-05T09:22:09;24.40;44.50
21807;DHT22;11065;50.786;7.840;2022-07-05T09:24:43;24.60;44.60
21807;DHT22;11065;50.786;7.840;2022-07-05T09:27:12;24.90;44.20
21807;DHT22;11065;50.786;7.840;2022-07-05T09:29:54;25.20;44.40
21807;DHT22;11065;50.786;7.840;2022-07-05T09:32:28;25.50;43.60
21807;DHT22;11065;50.786;7.840;2022-07-05T09:34:58;25.80;44.00
21807;DHT22;11065;50.786;7.840;2022-07-05T09:37:43;26.20;44.20
21807;DHT22;11065;50.786;7.840;2022-07-05T09:40:11;26.60;44.30
21807;DHT22;11065;50.786;7.840;2022-07-05T09:42:45;27.10;44.30
21807;DHT22;11065;50.786;7.840;2022-07-05T09:45:24;27.40;42.80
21807;DHT22;11065;50.786;7.840;2022-07-05T09:47:53;27.80;42.60
21807;DHT22;11065;50.786;7.840;2022-07-05T09:50:40;28.10;43.10
21807;DHT22;11065;50.786;7.840;2022-07-05T09:53:50;28.60;43.70
21807;DHT22;11065;50.786;7.840;2022-07-05T09:56:25;29.30;41.60
21807;DHT22;11065;50.786;7.840;2022-07-05T09:59:11;29.60;41.40
21807;DHT22;11065;50.786;7.840;2022-07-05T10:01:38;29.70;39.40
21807;DHT22;11065;50.786;7.840;2022-07-05T10:04:08;29.70;39.40
21807;DHT22;11065;50.786;7.840;2022-07-05T10:06:35;29.50;38.90
21807;DHT22;11065;50.786;7.840;2022-07-05T10:09:03;29.30;38.70
21807;DHT22;11065;50.786;7.840;2022-07-05T10:11:30;29.00;38.50
21807;DHT22;11065;50.786;7.840;2022-07-05T10:13:58;28.80;38.40
21807;DHT22;11065;50.786;7.840;2022-07-05T10:16:25;28.60;38.20
21807;DHT22;11065;50.786;7.840;2022-07-05T10:18:56;28.40;38.30
21807;DHT22;11065;50.786;7.840;2022-07-05T10:21:24;28.30;38.20
21807;DHT22;11065;50.786;7.840;2022-07-05T10:23:53;28.30;39.40
21807;DHT22;11065;50.786;7.840;2022-07-05T10:26:24;28.60;40.10
21807;DHT22;11065;50.786;7.840;2022-07-05T10:28:53;29.10;40.40
21807;DHT22;11065;50.786;7.840;2022-07-05T10:31:28;29.70;40.20
21807;DHT22;11065;50.786;7.840;2022-07-05T10:33:56;30.30;39.80
21807;DHT22;11065;50.786;7.840;2022-07-05T10:36:25;30.80;39.10
21807;DHT22;11065;50.786;7.840;2022-07-05T10:38:53;31.00;37.70
21807;DHT22;11065;50.786;7.840;2022-07-05T10:41:23;31.10;37.20
21807;DHT22;11065;50.786;7.840;2022-07-05T10:43:57;31.10;36.70
21807;DHT22;11065;50.786;7.840;2022-07-05T10:46:37;31.30;36.90
21807;DHT22;11065;50.786;7.840;2022-07-05T10:49:14;31.40;35.90
21807;DHT22;11065;50.786;7.840;2022-07-05T10:51:41;31.60;36.00
21807;DHT22;11065;50.786;7.840;2022-07-05T10:54:08;32.10;37.10
21807;DHT22;11065;50.786;7.840;2022-07-05T10:56:36;32.60;37.20
21807;DHT22;11065;50.786;7.840;2022-07-05T10:59:09;33.20;36.80
21807;DHT22;11065;50.786;7.840;2022-07-05T11:01:39;33.70;35.50
21807;DHT22;11065;50.786;7.840;2022-07-05T11:04:19;34.00;33.90
21807;DHT22;11065;50.786;7.840;2022-07-05T11:06:46;34.00;32.60
21807;DHT22;11065;50.786;7.840;2022-07-05T11:09:18;33.70;32.10
21807;DHT22;11065;50.786;7.840;2022-07-05T11:11:45;33.70;32.60
21807;DHT22;11065;50.786;7.840;2022-07-05T11:14:35;33.90;33.40
21807;DHT22;11065;50.786;7.840;2022-07-05T11:20:08;34.80;33.10
21807;DHT22;11065;50.786;7.840;2022-07-05T11:23:25;35.50;33.40
21807;DHT22;11065;50.786;7.840;2022-07-05T11:25:23;36.10;33.60
21807;DHT22;11065;50.786;7.840;2022-07-05T11:28:15;36.80;33.20
21807;DHT22;11065;50.786;7.840;2022-07-05T11:30:54;37.40;30.80
21807;DHT22;11065;50.786;7.840;2022-07-05T11:35:56;38.10;29.90
21807;DHT22;11065;50.786;7.840;2022-07-05T11:38:26;38.10;30.00
21807;DHT22;11065;50.786;7.840;2022-07-05T11:41:14;38.10;29.80
21807;DHT22;11065;50.786;7.840;2022-07-05T11:43:41;38.20;29.50
21807;DHT22;11065;50.786;7.840;2022-07-05T11:46:09;38.20;29.10
21807;DHT22;11065;50.786;7.840;2022-07-05T11:48:56;38.40;29.40
21807;DHT22;11065;50.786;7.840;2022-07-05T11:51:24;38.50;29.40
21807;DHT22;11065;50.786;7.840;2022-07-05T11:53:51;38.80;29.00
21807;DHT22;11065;50.786;7.840;2022-07-05T11:56:38;39.00;29.00
21807;DHT22;11065;50.786;7.840;2022-07-05T11:59:21;39.30;28.90
21807;DHT22;11065;50.786;7.840;2022-07-05T12:01:48;39.60;28.00
21807;DHT22;11065;50.786;7.840;2022-07-05T12:04:28;39.80;28.30
21807;DHT22;11065;50.786;7.840;2022-07-05T12:06:56;39.70;27.30
21807;DHT22;11065;50.786;7.840;2022-07-05T12:09:28;39.60;27.50
21807;DHT22;11065;50.786;7.840;2022-07-05T12:12:19;39.50;27.20
21807;DHT22;11065;50.786;7.840;2022-07-05T12:15:05;39.50;27.50
21807;DHT22;11065;50.786;7.840;2022-07-05T12:17:36;39.50;27.80
21807;DHT22;11065;50.786;7.840;2022-07-05T12:20:05;39.50;27.00
21807;DHT22;11065;50.786;7.840;2022-07-05T12:22:33;39.20;26.70
21807;DHT22;11065;50.786;7.840;2022-07-05T12:25:02;38.90;26.50
21807;DHT22;11065;50.786;7.840;2022-07-05T12:27:31;38.60;26.50
21807;DHT22;11065;50.786;7.840;2022-07-05T12:29:58;38.40;27.10
21807;DHT22;11065;50.786;7.840;2022-07-05T12:32:25;38.40;26.70
21807;DHT22;11065;50.786;7.840;2022-07-05T12:34:52;38.30;26.50
21807;DHT22;11065;50.786;7.840;2022-07-05T12:37:23;38.10;26.70
21807;DHT22;11065;50.786;7.840;2022-07-05T12:40:05;38.00;26.40
21807;DHT22;11065;50.786;7.840;2022-07-05T12:42:38;38.00;26.20
21807;DHT22;11065;50.786;7.840;2022-07-05T12:45:13;37.90;26.30
21807;DHT22;11065;50.786;7.840;2022-07-05T12:47:54;37.80;26.50
21807;DHT22;11065;50.786;7.840;2022-07-05T12:50:26;37.80;26.10
21807;DHT22;11065;50.786;7.840;2022-07-05T12:53:18;37.80;26.20
21807;DHT22;11065;50.786;7.840;2022-07-05T12:56:05;37.90;26.30
21807;DHT22;11065;50.786;7.840;2022-07-05T13:01:34;38.00;26.10
21807;DHT22;11065;50.786;7.840;2022-07-05T13:04:15;38.20;25.90
21807;DHT22;11065;50.786;7.840;2022-07-05T13:09:13;38.30;25.80
21807;DHT22;11065;50.786;7.840;2022-07-05T13:11:40;38.30;25.80
21807;DHT22;11065;50.786;7.840;2022-07-05T13:14:07;38.20;26.00
21807;DHT22;11065;50.786;7.840;2022-07-05T13:16:34;38.10;25.80
21807;DHT22;11065;50.786;7.840;2022-07-05T13:19:12;38.10;25.80
21807;DHT22;11065;50.786;7.840;2022-07-05T13:21:39;38.00;25.30
21807;DHT22;11065;50.786;7.840;2022-07-05T13:24:06;37.80;25.50
21807;DHT22;11065;50.786;7.840;2022-07-05T13:26:33;37.60;25.40
21807;DHT22;11065;50.786;7.840;2022-07-05T13:29:00;37.50;25.40
21807;DHT22;11065;50.786;7.840;2022-07-05T13:31:27;37.40;25.50
21807;DHT22;11065;50.786;7.840;2022-07-05T13:33:56;37.40;25.80
21807;DHT22;11065;50.786;7.840;2022-07-05T13:36:23;37.40;25.60
21807;DHT22;11065;50.786;7.840;2022-07-05T13:38:50;37.40;25.40
21807;DHT22;11065;50.786;7.840;2022-07-05T13:41:16;37.30;25.50
21807;DHT22;11065;50.786;7.840;2022-07-05T13:43:43;37.20;25.20
21807;DHT22;11065;50.786;7.840;2022-07-05T13:46:14;37.10;25.10
21807;DHT22;11065;50.786;7.840;2022-07-05T13:48:41;36.80;24.90
21807;DHT22;11065;50.786;7.840;2022-07-05T13:51:08;36.60;25.00
21807;DHT22;11065;50.786;7.840;2022-07-05T13:53:35;36.50;25.10
21807;DHT22;11065;50.786;7.840;2022-07-05T13:56:06;36.30;24.90
21807;DHT22;11065;50.786;7.840;2022-07-05T13:58:34;35.90;24.70
21807;DHT22;11065;50.786;7.840;2022-07-05T14:01:01;35.70;25.00
21807;DHT22;11065;50.786;7.840;2022-07-05T14:03:31;35.50;25.30
21807;DHT22;11065;50.786;7.840;2022-07-05T14:05:58;35.20;25.30
21807;DHT22;11065;50.786;7.840;2022-07-05T14:08:25;35.00;25.30
21807;DHT22;11065;50.786;7.840;2022-07-05T14:10:54;34.90;25.50
21807;DHT22;11065;50.786;7.840;2022-07-05T14:13:23;34.70;25.60
21807;DHT22;11065;50.786;7.840;2022-07-05T14:15:51;34.60;25.60
21807;DHT22;11065;50.786;7.840;2022-07-05T14:18:19;34.50;25.70
21807;DHT22;11065;50.786;7.840;2022-07-05T14:20:47;34.50;25.80
21807;DHT22;11065;50.786;7.840;2022-07-05T14:23:14;34.60;26.00
21807;DHT22;11065;50.786;7.840;2022-07-05T14:25:42;34.70;26.00
21807;DHT22;11065;50.786;7.840;2022-07-05T14:28:09;34.90;26.00
21807;DHT22;11065;50.786;7.840;2022-07-05T14:30:38;35.00;25.80
21807;DHT22;11065;50.786;7.840;2022-07-05T14:33:06;35.10;25.70
21807;DHT22;11065;50.786;7.840;2022-07-05T14:35:33;35.20;25.50
21807;DHT22;11065;50.786;7.840;2022-07-05T14:38:00;35.20;25.40
21807;DHT22;11065;50.786;7.840;2022-07-05T14:40:27;35.10;25.40
21807;DHT22;11065;50.786;7.840;2022-07-05T14:42:54;35.00;25.50
21807;DHT22;11065;50.786;7.840;2022-07-05T14:45:22;34.80;25.60
21807;DHT22;11065;50.786;7.840;2022-07-05T14:47:54;34.70;25.80
21807;DHT22;11065;50.786;7.840;2022-07-05T14:50:22;34.70;26.00
21807;DHT22;11065;50.786;7.840;2022-07-05T14:52:49;34.70;26.10
21807;DHT22;11065;50.786;7.840;2022-07-05T14:55:17;34.70;26.00
21807;DHT22;11065;50.786;7.840;2022-07-05T14:57:44;34.80;26.00
21807;DHT22;11065;50.786;7.840;2022-07-05T15:00:13;34.80;26.00
21807;DHT22;11065;50.786;7.840;2022-07-05T15:02:40;34.70;25.70
21807;DHT22;11065;50.786;7.840;2022-07-05T15:05:08;34.60;25.60
21807;DHT22;11065;50.786;7.840;2022-07-05T15:07:36;34.50;25.60
21807;DHT22;11065;50.786;7.840;2022-07-05T15:10:03;34.40;25.90
21807;DHT22;11065;50.786;7.840;2022-07-05T15:12:31;34.40;25.90
21807;DHT22;11065;50.786;7.840;2022-07-05T15:14:57;34.40;26.00
21807;DHT22;11065;50.786;7.840;2022-07-05T15:17:25;34.40;25.90
21807;DHT22;11065;50.786;7.840;2022-07-05T15:19:52;34.40;25.70
21807;DHT22;11065;50.786;7.840;2022-07-05T15:22:19;34.40;25.60
21807;DHT22;11065;50.786;7.840;2022-07-05T15:24:47;34.30;25.50
21807;DHT22;11065;50.786;7.840;2022-07-05T15:27:14;34.30;25.30
21807;DHT22;11065;50.786;7.840;2022-07-05T15:29:46;34.10;25.40
21807;DHT22;11065;50.786;7.840;2022-07-05T15:32:13;34.10;25.50
21807;DHT22;11065;50.786;7.840;2022-07-05T15:34:40;34.00;25.50
21807;DHT22;11065;50.786;7.840;2022-07-05T15:37:07;33.90;25.40
21807;DHT22;11065;50.786;7.840;2022-07-05T15:39:34;33.90;25.30
21807;DHT22;11065;50.786;7.840;2022-07-05T15:42:01;33.80;25.20
21807;DHT22;11065;50.786;7.840;2022-07-05T15:44:28;33.60;25.10
21807;DHT22;11065;50.786;7.840;2022-07-05T15:46:55;33.50;25.30
21807;DHT22;11065;50.786;7.840;2022-07-05T15:49:30;33.40;25.40
21807;DHT22;11065;50.786;7.840;2022-07-05T15:51:58;33.20;25.50
21807;DHT22;11065;50.786;7.840;2022-07-05T15:54:26;33.20;25.60
21807;DHT22;11065;50.786;7.840;2022-07-05T15:56:53;33.10;25.60